sensor_id;sensor_type;location;lat;lon;timestamp;temperature;humidity
45849;DHT22;31567;54.600;9.842;2023-05-10T00:03:23;14.80;84.00
45849;DHT22;31567;54.600;9.842;2023-05-10T00:07:02;14.80;83.70
45849;DHT22;31567;54.600;9.842;2023-05-10T00:10:42;14.90;84.20
45849;DHT22;31567;54.600;9.842;2023-05-10T00:14:22;14.90;84.20
45849;DHT22;31567;54.600;9.842;2023-05-10T00:18:01;14.90;84.40
45849;DHT22;31567;54.600;9.842;2023-05-10T00:21:41;14.90;84.30
45849;DHT22;31567;54.600;9.842;2023-05-10T00:25:20;14.90;84.70
45849;DHT22;31567;54.600;9.842;2023-05-10T00:29:03;14.90;84.90
45849;DHT22;31567;54.600;9.842;2023-05-10T00:32:42;14.90;85.10
45849;DHT22;31567;54.600;9.842;2023-05-10T00:36:22;14.90;85.40
45849;DHT22;31567;54.600;9.842;2023-05-10T00:40:02;14.80;85.70
45849;DHT22;31567;54.600;9.842;2023-05-10T00:43:42;14.80;85.80
45849;DHT22;31567;54.600;9.842;2023-05-10T00:47:22;14.80;86.10
45849;DHT22;31567;54.600;9.842;2023-05-10T00:51:03;14.70;86.30
45849;DHT22;31567;54.600;9.842;2023-05-10T00:54:42;14.60;86.50
45849;DHT22;31567;54.600;9.842;2023-05-10T00:58:22;14.60;86.80
45849;DHT22;31567;54.600;9.842;2023-05-10T01:02:03;14.50;86.80
45849;DHT22;31567;54.600;9.842;2023-05-10T01:05:43;14.50;86.90
45849;DHT22;31567;54.600;9.842;2023-05-10T01:09:22;14.60;87.10
45849;DHT22;31567;54.600;9.842;2023-05-10T01:13:02;14.50;86.80
45849;DHT22;31567;54.600;9.842;2023-05-10T01:16:44;14.50;86.30
45849;DHT22;31567;54.600;9.842;2023-05-10T01:20:26;14.50;86.10
45849;DHT22;31567;54.600;9.842;2023-05-10T01:28:33;14.30;86.40
45849;DHT22;31567;54.600;9.842;2023-05-10T01:36:34;14.10;86.60
45849;DHT22;31567;54.600;9.842;2023-05-10T01:40:29;14.00;86.60
45849;DHT22;31567;54.600;9.842;2023-05-10T01:44:31;13.90;87.00
45849;DHT22;31567;54.600;9.842;2023-05-10T01:48:15;13.70;87.10
45849;DHT22;31567;54.600;9.842;2023-05-10T01:52:00;13.70;87.40
45849;DHT22;31567;54.600;9.842;2023-05-10T01:55:49;13.60;87.70
45849;DHT22;31567;54.600;9.842;2023-05-10T01:59:33;13.50;87.60
45849;DHT22;31567;54.600;9.842;2023-05-10T02:03:16;13.50;88.20
45849;DHT22;31567;54.600;9.842;2023-05-10T02:06:57;13.40;88.80
45849;DHT22;31567;54.600;9.842;2023-05-10T02:10:39;13.40;89.60
45849;DHT22;31567;54.600;9.842;2023-05-10T02:14:19;13.40;90.10
45849;DHT22;31567;54.600;9.842;2023-05-10T02:18:00;13.40;90.30
45849;DHT22;31567;54.600;9.842;2023-05-10T02:21:40;13.40;90.60
45849;DHT22;31567;54.600;9.842;2023-05-10T02:25:22;13.30;90.70
45849;DHT22;31567;54.600;9.842;2023-05-10T02:29:03;13.30;90.90
45849;DHT22;31567;54.600;9.842;2023-05-10T02:32:44;13.30;91.20
45849;DHT22;31567;54.600;9.842;2023-05-10T02:36:25;13.30;91.50
45849;DHT22;31567;54.600;9.842;2023-05-10T02:40:07;13.30;91.80
45849;DHT22;31567;54.600;9.842;2023-05-10T02:43:49;13.30;92.10
45849;DHT22;31567;54.600;9.842;2023-05-10T02:47:30;13.30;92.30
45849;DHT22;31567;54.600;9.842;2023-05-10T02:51:12;13.30;92.50
45849;DHT22;31567;54.600;9.842;2023-05-10T02:54:55;13.30;92.60
45849;DHT22;31567;54.600;9.842;2023-05-10T02:58:35;13.30;92.80
45849;DHT22;31567;54.600;9.842;2023-05-10T03:02:15;13.30;92.90
45849;DHT22;31567;54.600;9.842;2023-05-10T03:05:54;13.30;93.00
45849;DHT22;31567;54.600;9.842;2023-05-10T03:09:35;13.30;93.20
45849;DHT22;31567;54.600;9.842;2023-05-10T03:13:36;13.30;93.20
45849;DHT22;31567;54.600;9.842;2023-05-10T03:17:30;13.30;93.30
45849;DHT22;31567;54.600;9.842;2023-05-10T03:21:11;13.30;93.40
45849;DHT22;31567;54.600;9.842;2023-05-10T03:24:55;13.20;93.30
45849;DHT22;31567;54.600;9.842;2023-05-10T03:28:36;13.20;93.40
45849;DHT22;31567;54.600;9.842;2023-05-10T03:32:16;13.10;93.40
45849;DHT22;31567;54.600;9.842;2023-05-10T03:35:56;13.20;93.80
45849;DHT22;31567;54.600;9.842;2023-05-10T03:39:36;13.10;93.50
45849;DHT22;31567;54.600;9.842;2023-05-10T03:43:15;13.10;93.60
45849;DHT22;31567;54.600;9.842;2023-05-10T03:46:55;13.20;93.80
45849;DHT22;31567;54.600;9.842;2023-05-10T03:50:36;13.10;93.80
45849;DHT22;31567;54.600;9.842;2023-05-10T03:54:15;13.10;93.90
45849;DHT22;31567;54.600;9.842;2023-05-10T03:57:55;13.10;93.90
45849;DHT22;31567;54.600;9.842;2023-05-10T04:01:35;13.10;94.20
45849;DHT22;31567;54.600;9.842;2023-05-10T04:05:14;13.10;94.00
45849;DHT22;31567;54.600;9.842;2023-05-10T04:08:54;13.20;94.00
45849;DHT22;31567;54.600;9.842;2023-05-10T04:12:34;13.10;94.10
45849;DHT22;31567;54.600;9.842;2023-05-10T04:16:14;13.20;94.10
45849;DHT22;31567;54.600;9.842;2023-05-10T04:19:53;13.20;94.20
45849;DHT22;31567;54.600;9.842;2023-05-10T04:23:34;13.20;94.20
45849;DHT22;31567;54.600;9.842;2023-05-10T04:27:13;13.30;94.30
45849;DHT22;31567;54.600;9.842;2023-05-10T04:30:59;13.30;94.30
45849;DHT22;31567;54.600;9.842;2023-05-10T04:34:39;13.40;94.30
45849;DHT22;31567;54.600;9.842;2023-05-10T04:38:18;13.30;94.20
45849;DHT22;31567;54.600;9.842;2023-05-10T04:41:58;13.40;94.20
45849;DHT22;31567;54.600;9.842;2023-05-10T04:45:38;13.40;94.10
45849;DHT22;31567;54.600;9.842;2023-05-10T04:49:17;13.50;94.20
45849;DHT22;31567;54.600;9.842;2023-05-10T04:52:57;13.60;94.20
45849;DHT22;31567;54.600;9.842;2023-05-10T04:56:36;13.60;94.20
45849;DHT22;31567;54.600;9.842;2023-05-10T05:00:16;13.60;94.20
45849;DHT22;31567;54.600;9.842;2023-05-10T05:03:56;13.70;94.30
45849;DHT22;31567;54.600;9.842;2023-05-10T05:07:35;13.70;94.20
45849;DHT22;31567;54.600;9.842;2023-05-10T05:11:15;13.80;94.20
45849;DHT22;31567;54.600;9.842;2023-05-10T05:14:54;13.80;94.10
45849;DHT22;31567;54.600;9.842;2023-05-10T05:18:34;13.90;94.10
45849;DHT22;31567;54.600;9.842;2023-05-10T05:22:13;14.00;94.10
45849;DHT22;31567;54.600;9.842;2023-05-10T05:25:53;14.00;94.00
45849;DHT22;31567;54.600;9.842;2023-05-10T05:29:33;14.10;94.00
45849;DHT22;31567;54.600;9.842;2023-05-10T05:33:15;14.20;93.90
45849;DHT22;31567;54.600;9.842;2023-05-10T05:36:55;14.30;93.80
45849;DHT22;31567;54.600;9.842;2023-05-10T05:40:34;14.40;93.70
45849;DHT22;31567;54.600;9.842;2023-05-10T05:44:14;14.50;93.60
45849;DHT22;31567;54.600;9.842;2023-05-10T05:47:53;14.60;93.50
45849;DHT22;31567;54.600;9.842;2023-05-10T05:51:33;14.80;93.50
45849;DHT22;31567;54.600;9.842;2023-05-10T05:55:14;14.90;93.30
45849;DHT22;31567;54.600;9.842;2023-05-10T05:58:53;15.10;93.10
45849;DHT22;31567;54.600;9.842;2023-05-10T06:02:33;15.20;93.00
45849;DHT22;31567;54.600;9.842;2023-05-10T06:06:12;15.30;93.00
45849;DHT22;31567;54.600;9.842;2023-05-10T06:09:52;15.30;92.90
45849;DHT22;31567;54.600;9.842;2023-05-10T06:13:32;15.30;92.30
45849;DHT22;31567;54.600;9.842;2023-05-10T06:17:12;15.40;91.80
45849;DHT22;31567;54.600;9.842;2023-05-10T06:20:52;15.20;91.40
45849;DHT22;31567;54.600;9.842;2023-05-10T06:24:31;15.20;91.00
45849;DHT22;31567;54.600;9.842;2023-05-10T06:28:11;15.30;90.90
45849;DHT22;31567;54.600;9.842;2023-05-10T06:31:51;15.30;90.80
45849;DHT22;31567;54.600;9.842;2023-05-10T06:35:30;15.20;90.80
45849;DHT22;31567;54.600;9.842;2023-05-10T06:39:12;15.30;90.90
45849;DHT22;31567;54.600;9.842;2023-05-10T06:42:52;15.40;91.10
45849;DHT22;31567;54.600;9.842;2023-05-10T06:46:31;15.50;91.40
45849;DHT22;31567;54.600;9.842;2023-05-10T06:50:11;15.60;91.40
45849;DHT22;31567;54.600;9.842;2023-05-10T06:53:51;15.80;91.40
45849;DHT22;31567;54.600;9.842;2023-05-10T06:57:31;16.00;90.80
45849;DHT22;31567;54.600;9.842;2023-05-10T07:01:11;16.10;91.00
45849;DHT22;31567;54.600;9.842;2023-05-10T07:04:50;16.30;91.00
45849;DHT22;31567;54.600;9.842;2023-05-10T07:08:31;16.50;91.10
45849;DHT22;31567;54.600;9.842;2023-05-10T07:12:11;16.70;91.00
45849;DHT22;31567;54.600;9.842;2023-05-10T07:15:50;16.80;91.00
45849;DHT22;31567;54.600;9.842;2023-05-10T07:19:30;16.90;90.80
45849;DHT22;31567;54.600;9.842;2023-05-10T07:23:11;17.00;90.60
45849;DHT22;31567;54.600;9.842;2023-05-10T07:26:51;17.10;90.70
45849;DHT22;31567;54.600;9.842;2023-05-10T07:30:31;17.10;90.50
45849;DHT22;31567;54.600;9.842;2023-05-10T07:34:10;17.30;90.50
45849;DHT22;31567;54.600;9.842;2023-05-10T07:37:50;17.20;90.50
45849;DHT22;31567;54.600;9.842;2023-05-10T07:41:29;17.40;90.70
45849;DHT22;31567;54.600;9.842;2023-05-10T07:45:09;17.50;90.50
45849;DHT22;31567;54.600;9.842;2023-05-10T07:48:49;17.60;90.40
45849;DHT22;31567;54.600;9.842;2023-05-10T07:52:28;17.70;90.20
45849;DHT22;31567;54.600;9.842;2023-05-10T07:56:26;17.80;90.00
45849;DHT22;31567;54.600;9.842;2023-05-10T08:00:07;17.90;90.20
45849;DHT22;31567;54.600;9.842;2023-05-10T08:03:46;18.00;90.00
45849;DHT22;31567;54.600;9.842;2023-05-10T08:07:26;18.10;90.00
45849;DHT22;31567;54.600;9.842;2023-05-10T08:11:06;18.20;89.60
45849;DHT22;31567;54.600;9.842;2023-05-10T08:14:45;18.30;89.00
45849;DHT22;31567;54.600;9.842;2023-05-10T08:18:25;18.40;88.90
45849;DHT22;31567;54.600;9.842;2023-05-10T08:22:04;18.40;88.70
45849;DHT22;31567;54.600;9.842;2023-05-10T08:25:44;18.50;88.90
45849;DHT22;31567;54.600;9.842;2023-05-10T08:29:24;18.50;88.80
45849;DHT22;31567;54.600;9.842;2023-05-10T08:33:03;18.50;88.10
45849;DHT22;31567;54.600;9.842;2023-05-10T08:36:43;18.50;87.60
45849;DHT22;31567;54.600;9.842;2023-05-10T08:40:24;18.60;87.80
45849;DHT22;31567;54.600;9.842;2023-05-10T08:44:04;18.80;88.50
45849;DHT22;31567;54.600;9.842;2023-05-10T08:47:45;18.90;87.70
45849;DHT22;31567;54.600;9.842;2023-05-10T08:51:26;19.00;87.00
45849;DHT22;31567;54.600;9.842;2023-05-10T08:55:07;19.10;87.50
45849;DHT22;31567;54.600;9.842;2023-05-10T08:58:47;19.20;87.60
45849;DHT22;31567;54.600;9.842;2023-05-10T09:02:28;19.30;87.50
45849;DHT22;31567;54.600;9.842;2023-05-10T09:06:07;19.40;86.60
45849;DHT22;31567;54.600;9.842;2023-05-10T09:09:47;19.30;83.60
45849;DHT22;31567;54.600;9.842;2023-05-10T09:13:28;19.20;82.00
45849;DHT22;31567;54.600;9.842;2023-05-10T09:17:07;19.40;82.90
45849;DHT22;31567;54.600;9.842;2023-05-10T09:20:49;19.30;82.40
45849;DHT22;31567;54.600;9.842;2023-05-10T09:24:30;19.40;83.00
45849;DHT22;31567;54.600;9.842;2023-05-10T09:28:10;19.50;83.00
45849;DHT22;31567;54.600;9.842;2023-05-10T09:31:51;19.70;84.20
45849;DHT22;31567;54.600;9.842;2023-05-10T09:35:32;19.60;83.60
45849;DHT22;31567;54.600;9.842;2023-05-10T09:39:12;19.70;84.80
45849;DHT22;31567;54.600;9.842;2023-05-10T09:46:35;19.80;85.10
45849;DHT22;31567;54.600;9.842;2023-05-10T09:50:16;19.90;85.40
45849;DHT22;31567;54.600;9.842;2023-05-10T09:54:13;20.10;85.30
45849;DHT22;31567;54.600;9.842;2023-05-10T09:57:59;20.30;83.40
45849;DHT22;31567;54.600;9.842;2023-05-10T10:01:40;20.30;83.30
45849;DHT22;31567;54.600;9.842;2023-05-10T10:05:20;20.30;82.80
45849;DHT22;31567;54.600;9.842;2023-05-10T10:09:00;20.30;82.10
45849;DHT22;31567;54.600;9.842;2023-05-10T10:12:40;20.20;83.10
45849;DHT22;31567;54.600;9.842;2023-05-10T10:16:20;20.30;84.40
45849;DHT22;31567;54.600;9.842;2023-05-10T10:20:01;20.40;84.20
45849;DHT22;31567;54.600;9.842;2023-05-10T10:23:41;20.30;83.90
45849;DHT22;31567;54.600;9.842;2023-05-10T10:27:30;20.30;83.30
45849;DHT22;31567;54.600;9.842;2023-05-10T10:31:38;20.30;83.80
45849;DHT22;31567;54.600;9.842;2023-05-10T10:35:19;20.30;83.80
45849;DHT22;31567;54.600;9.842;2023-05-10T10:39:00;20.30;84.10
45849;DHT22;31567;54.600;9.842;2023-05-10T10:42:49;20.30;83.80
45849;DHT22;31567;54.600;9.842;2023-05-10T10:46:34;20.40;84.10
45849;DHT22;31567;54.600;9.842;2023-05-10T10:50:13;20.50;84.00
45849;DHT22;31567;54.600;9.842;2023-05-10T10:54:11;20.50;84.00
45849;DHT22;31567;54.600;9.842;2023-05-10T10:57:57;20.50;83.30
45849;DHT22;31567;54.600;9.842;2023-05-10T11:01:41;20.30;84.20
45849;DHT22;31567;54.600;9.842;2023-05-10T11:09:12;20.30;83.80
45849;DHT22;31567;54.600;9.842;2023-05-10T11:13:03;20.30;84.90
45849;DHT22;31567;54.600;9.842;2023-05-10T11:16:43;20.40;84.00
45849;DHT22;31567;54.600;9.842;2023-05-10T11:20:27;20.40;84.60
45849;DHT22;31567;54.600;9.842;2023-05-10T11:24:20;20.50;84.90
45849;DHT22;31567;54.600;9.842;2023-05-10T11:28:02;20.50;85.80
45849;DHT22;31567;54.600;9.842;2023-05-10T11:31:44;20.40;85.20
45849;DHT22;31567;54.600;9.842;2023-05-10T11:35:27;20.30;85.00
45849;DHT22;31567;54.600;9.842;2023-05-10T11:39:07;20.30;84.90
45849;DHT22;31567;54.600;9.842;2023-05-10T11:42:47;20.20;85.10
45849;DHT22;31567;54.600;9.842;2023-05-10T11:46:27;20.20;84.90
45849;DHT22;31567;54.600;9.842;2023-05-10T11:50:07;20.10;84.80
45849;DHT22;31567;54.600;9.842;2023-05-10T11:53:48;20.00;84.90
45849;DHT22;31567;54.600;9.842;2023-05-10T11:57:28;19.90;85.60
45849;DHT22;31567;54.600;9.842;2023-05-10T12:01:09;19.80;85.70
45849;DHT22;31567;54.600;9.842;2023-05-10T12:04:50;19.70;86.10
45849;DHT22;31567;54.600;9.842;2023-05-10T12:08:30;19.60;86.90
45849;DHT22;31567;54.600;9.842;2023-05-10T12:12:16;19.60;87.20
45849;DHT22;31567;54.600;9.842;2023-05-10T12:15:59;19.60;87.50
45849;DHT22;31567;54.600;9.842;2023-05-10T12:19:40;19.60;87.70
45849;DHT22;31567;54.600;9.842;2023-05-10T12:23:20;19.60;87.50
45849;DHT22;31567;54.600;9.842;2023-05-10T12:27:04;19.70;88.30
45849;DHT22;31567;54.600;9.842;2023-05-10T12:30:44;19.80;89.00
45849;DHT22;31567;54.600;9.842;2023-05-10T12:34:31;19.80;89.20
45849;DHT22;31567;54.600;9.842;2023-05-10T12:38:34;19.90;90.00
45849;DHT22;31567;54.600;9.842;2023-05-10T12:42:14;19.90;90.00
45849;DHT22;31567;54.600;9.842;2023-05-10T12:45:54;19.80;90.00
45849;DHT22;31567;54.600;9.842;2023-05-10T12:49:34;19.80;90.10
45849;DHT22;31567;54.600;9.842;2023-05-10T12:53:14;19.60;90.50
45849;DHT22;31567;54.600;9.842;2023-05-10T12:56:54;19.50;91.20
45849;DHT22;31567;54.600;9.842;2023-05-10T13:00:34;19.50;91.10
45849;DHT22;31567;54.600;9.842;2023-05-10T13:04:14;19.50;91.10
45849;DHT22;31567;54.600;9.842;2023-05-10T13:07:53;19.00;91.10
45849;DHT22;31567;54.600;9.842;2023-05-10T13:11:33;18.70;92.00
45849;DHT22;31567;54.600;9.842;2023-05-10T13:15:12;18.20;92.90
45849;DHT22;31567;54.600;9.842;2023-05-10T13:18:52;18.00;93.60
45849;DHT22;31567;54.600;9.842;2023-05-10T13:22:31;17.80;94.20
45849;DHT22;31567;54.600;9.842;2023-05-10T13:26:11;17.60;94.40
45849;DHT22;31567;54.600;9.842;2023-05-10T13:29:51;17.40;95.00
45849;DHT22;31567;54.600;9.842;2023-05-10T13:33:30;17.20;95.50
45849;DHT22;31567;54.600;9.842;2023-05-10T13:37:10;17.00;95.70
45849;DHT22;31567;54.600;9.842;2023-05-10T13:40:49;17.00;96.10
45849;DHT22;31567;54.600;9.842;2023-05-10T13:44:31;16.80;96.20
45849;DHT22;31567;54.600;9.842;2023-05-10T13:48:12;16.80;96.70
45849;DHT22;31567;54.600;9.842;2023-05-10T13:51:52;16.80;96.70
45849;DHT22;31567;54.600;9.842;2023-05-10T13:55:31;16.80;96.80
45849;DHT22;31567;54.600;9.842;2023-05-10T13:59:11;16.90;96.90
45849;DHT22;31567;54.600;9.842;2023-05-10T14:02:51;16.90;97.00
45849;DHT22;31567;54.600;9.842;2023-05-10T14:06:30;17.00;97.00
45849;DHT22;31567;54.600;9.842;2023-05-10T14:10:10;17.00;96.90
45849;DHT22;31567;54.600;9.842;2023-05-10T14:13:50;17.10;96.80
45849;DHT22;31567;54.600;9.842;2023-05-10T14:17:29;17.10;96.70
45849;DHT22;31567;54.600;9.842;2023-05-10T14:21:09;17.20;96.60
45849;DHT22;31567;54.600;9.842;2023-05-10T14:24:48;17.30;96.60
45849;DHT22;31567;54.600;9.842;2023-05-10T14:28:28;17.40;96.70
45849;DHT22;31567;54.600;9.842;2023-05-10T14:32:08;17.50;96.60
45849;DHT22;31567;54.600;9.842;2023-05-10T14:35:48;17.60;96.40
45849;DHT22;31567;54.600;9.842;2023-05-10T14:39:27;17.80;96.20
45849;DHT22;31567;54.600;9.842;2023-05-10T14:43:09;17.80;96.10
45849;DHT22;31567;54.600;9.842;2023-05-10T14:46:48;17.90;96.30
45849;DHT22;31567;54.600;9.842;2023-05-10T14:50:28;18.00;96.30
45849;DHT22;31567;54.600;9.842;2023-05-10T14:54:08;18.10;96.30
45849;DHT22;31567;54.600;9.842;2023-05-10T14:57:47;18.20;96.40
45849;DHT22;31567;54.600;9.842;2023-05-10T15:01:29;18.20;96.40
45849;DHT22;31567;54.600;9.842;2023-05-10T15:05:10;18.10;96.30
45849;DHT22;31567;54.600;9.842;2023-05-10T15:08:50;18.10;96.60
45849;DHT22;31567;54.600;9.842;2023-05-10T15:12:30;18.10;96.80
45849;DHT22;31567;54.600;9.842;2023-05-10T15:16:09;18.10;96.70
45849;DHT22;31567;54.600;9.842;2023-05-10T15:19:49;18.20;96.90
45849;DHT22;31567;54.600;9.842;2023-05-10T15:23:29;18.20;97.00
45849;DHT22;31567;54.600;9.842;2023-05-10T15:27:09;18.10;97.10
45849;DHT22;31567;54.600;9.842;2023-05-10T15:30:48;18.10;97.10
45849;DHT22;31567;54.600;9.842;2023-05-10T15:34:28;18.20;97.20
45849;DHT22;31567;54.600;9.842;2023-05-10T15:38:09;18.20;97.40
45849;DHT22;31567;54.600;9.842;2023-05-10T15:41:48;18.40;97.50
45849;DHT22;31567;54.600;9.842;2023-05-10T15:45:28;18.40;97.20
45849;DHT22;31567;54.600;9.842;2023-05-10T15:49:08;18.50;97.00
45849;DHT22;31567;54.600;9.842;2023-05-10T15:52:47;18.50;96.90
45849;DHT22;31567;54.600;9.842;2023-05-10T15:56:27;18.50;97.00
45849;DHT22;31567;54.600;9.842;2023-05-10T16:00:08;18.40;96.90
45849;DHT22;31567;54.600;9.842;2023-05-10T16:03:48;18.50;96.90
45849;DHT22;31567;54.600;9.842;2023-05-10T16:07:28;18.50;96.90
45849;DHT22;31567;54.600;9.842;2023-05-10T16:11:07;18.50;96.80
45849;DHT22;31567;54.600;9.842;2023-05-10T16:14:47;18.40;96.70
45849;DHT22;31567;54.600;9.842;2023-05-10T16:18:26;18.30;96.80
45849;DHT22;31567;54.600;9.842;2023-05-10T16:22:06;18.20;96.90
45849;DHT22;31567;54.600;9.842;2023-05-10T16:25:46;18.20;97.00
45849;DHT22;31567;54.600;9.842;2023-05-10T16:29:25;18.00;97.30
45849;DHT22;31567;54.600;9.842;2023-05-10T16:33:05;17.90;97.50
45849;DHT22;31567;54.600;9.842;2023-05-10T16:36:45;17.80;97.70
45849;DHT22;31567;54.600;9.842;2023-05-10T16:40:24;17.70;97.90
45849;DHT22;31567;54.600;9.842;2023-05-10T16:44:04;17.60;98.10
45849;DHT22;31567;54.600;9.842;2023-05-10T16:47:43;17.50;98.20
45849;DHT22;31567;54.600;9.842;2023-05-10T16:51:23;17.40;98.40
45849;DHT22;31567;54.600;9.842;2023-05-10T16:55:03;17.40;98.60
45849;DHT22;31567;54.600;9.842;2023-05-10T16:58:43;17.30;98.60
45849;DHT22;31567;54.600;9.842;2023-05-10T17:02:23;17.20;98.80
45849;DHT22;31567;54.600;9.842;2023-05-10T17:06:04;17.20;98.80
45849;DHT22;31567;54.600;9.842;2023-05-10T17:09:45;17.10;99.00
45849;DHT22;31567;54.600;9.842;2023-05-10T17:13:24;17.10;99.00
45849;DHT22;31567;54.600;9.842;2023-05-10T17:17:05;17.20;99.10
45849;DHT22;31567;54.600;9.842;2023-05-10T17:20:45;17.10;99.20
45849;DHT22;31567;54.600;9.842;2023-05-10T17:24:24;17.10;99.20
45849;DHT22;31567;54.600;9.842;2023-05-10T17:28:07;17.10;99.30
45849;DHT22;31567;54.600;9.842;2023-05-10T17:31:47;17.20;99.30
45849;DHT22;31567;54.600;9.842;2023-05-10T17:35:27;17.10;99.20
45849;DHT22;31567;54.600;9.842;2023-05-10T17:39:06;17.10;99.10
45849;DHT22;31567;54.600;9.842;2023-05-10T17:42:46;17.10;99.20
45849;DHT22;31567;54.600;9.842;2023-05-10T17:46:25;17.10;99.30
45849;DHT22;31567;54.600;9.842;2023-05-10T17:50:05;17.10;99.40
45849;DHT22;31567;54.600;9.842;2023-05-10T17:53:45;17.00;99.50
45849;DHT22;31567;54.600;9.842;2023-05-10T17:57:26;16.90;99.50
45849;DHT22;31567;54.600;9.842;2023-05-10T18:01:06;16.90;99.60
45849;DHT22;31567;54.600;9.842;2023-05-10T18:04:46;16.80;99.80
45849;DHT22;31567;54.600;9.842;2023-05-10T18:08:27;16.80;99.90
45849;DHT22;31567;54.600;9.842;2023-05-10T18:12:08;16.70;99.90
45849;DHT22;31567;54.600;9.842;2023-05-10T18:15:48;16.70;99.90
45849;DHT22;31567;54.600;9.842;2023-05-10T18:19:27;16.70;99.90
45849;DHT22;31567;54.600;9.842;2023-05-10T18:23:07;16.70;99.90
45849;DHT22;31567;54.600;9.842;2023-05-10T18:26:47;16.70;99.90
45849;DHT22;31567;54.600;9.842;2023-05-10T18:30:26;16.60;99.90
45849;DHT22;31567;54.600;9.842;2023-05-10T18:34:06;16.80;99.90
45849;DHT22;31567;54.600;9.842;2023-05-10T18:37:46;16.70;99.90
45849;DHT22;31567;54.600;9.842;2023-05-10T18:41:26;16.70;99.90
45849;DHT22;31567;54.600;9.842;2023-05-10T18:45:07;16.70;99.90
45849;DHT22;31567;54.600;9.842;2023-05-10T18:48:46;16.60;99.90
45849;DHT22;31567;54.600;9.842;2023-05-10T18:52:26;16.50;99.90
45849;DHT22;31567;54.600;9.842;2023-05-10T18:56:06;16.60;99.90
45849;DHT22;31567;54.600;9.842;2023-05-10T18:59:45;16.60;99.90
45849;DHT22;31567;54.600;9.842;2023-05-10T19:03:25;16.60;99.90
45849;DHT22;31567;54.600;9.842;2023-05-10T19:07:05;16.60;99.90
45849;DHT22;31567;54.600;9.842;2023-05-10T19:10:44;16.50;99.90
45849;DHT22;31567;54.600;9.842;2023-05-10T19:14:24;16.50;99.90
45849;DHT22;31567;54.600;9.842;2023-05-10T19:18:04;16.60;99.90
45849;DHT22;31567;54.600;9.842;2023-05-10T19:21:43;16.50;99.90
45849;DHT22;31567;54.600;9.842;2023-05-10T19:25:23;16.50;99.90
45849;DHT22;31567;54.600;9.842;2023-05-10T19:29:07;16.50;99.90
45849;DHT22;31567;54.600;9.842;2023-05-10T19:32:47;16.50;99.90
45849;DHT22;31567;54.600;9.842;2023-05-10T19:36:27;16.50;99.90
45849;DHT22;31567;54.600;9.842;2023-05-10T19:40:07;16.50;99.90
45849;DHT22;31567;54.600;9.842;2023-05-10T19:43:46;16.50;99.90
45849;DHT22;31567;54.600;9.842;2023-05-10T19:47:26;16.40;99.90
45849;DHT22;31567;54.600;9.842;2023-05-10T19:51:05;16.20;99.90
45849;DHT22;31567;54.600;9.842;2023-05-10T19:54:45;16.10;99.90
45849;DHT22;31567;54.600;9.842;2023-05-10T19:58:25;16.00;99.90
45849;DHT22;31567;54.600;9.842;2023-05-10T20:02:05;15.90;99.90
45849;DHT22;31567;54.600;9.842;2023-05-10T20:05:45;15.80;99.90
45849;DHT22;31567;54.600;9.842;2023-05-10T20:09:25;15.80;99.90
45849;DHT22;31567;54.600;9.842;2023-05-10T20:13:04;15.70;99.90
45849;DHT22;31567;54.600;9.842;2023-05-10T20:16:44;15.60;99.90
45849;DHT22;31567;54.600;9.842;2023-05-10T20:20:23;15.50;99.90
45849;DHT22;31567;54.600;9.842;2023-05-10T20:24:03;15.50;99.90
45849;DHT22;31567;54.600;9.842;2023-05-10T20:27:43;15.50;99.90
45849;DHT22;31567;54.600;9.842;2023-05-10T20:31:22;15.50;99.90
45849;DHT22;31567;54.600;9.842;2023-05-10T20:35:02;15.50;99.90
45849;DHT22;31567;54.600;9.842;2023-05-10T20:38:42;15.40;99.90
45849;DHT22;31567;54.600;9.842;2023-05-10T20:42:22;15.30;99.90
45849;DHT22;31567;54.600;9.842;2023-05-10T20:46:01;15.30;99.90
45849;DHT22;31567;54.600;9.842;2023-05-10T20:49:43;15.20;99.90
45849;DHT22;31567;54.600;9.842;2023-05-10T20:53:23;15.20;99.90
45849;DHT22;31567;54.600;9.842;2023-05-10T20:57:02;15.10;99.90
45849;DHT22;31567;54.600;9.842;2023-05-10T21:00:42;15.00;99.90
45849;DHT22;31567;54.600;9.842;2023-05-10T21:04:21;14.90;99.90
45849;DHT22;31567;54.600;9.842;2023-05-10T21:08:01;14.80;99.90
45849;DHT22;31567;54.600;9.842;2023-05-10T21:11:40;14.80;99.90
45849;DHT22;31567;54.600;9.842;2023-05-10T21:15:20;14.70;99.90
45849;DHT22;31567;54.600;9.842;2023-05-10T21:19:01;14.70;99.90
45849;DHT22;31567;54.600;9.842;2023-05-10T21:22:41;14.50;99.90
45849;DHT22;31567;54.600;9.842;2023-05-10T21:26:20;14.50;99.90
45849;DHT22;31567;54.600;9.842;2023-05-10T21:30:00;14.30;99.90
45849;DHT22;31567;54.600;9.842;2023-05-10T21:33:40;14.40;99.90
45849;DHT22;31567;54.600;9.842;2023-05-10T21:37:19;14.30;99.90
45849;DHT22;31567;54.600;9.842;2023-05-10T21:40:59;14.30;99.90
45849;DHT22;31567;54.600;9.842;2023-05-10T21:44:39;14.30;99.90
45849;DHT22;31567;54.600;9.842;2023-05-10T21:48:18;14.20;99.90
45849;DHT22;31567;54.600;9.842;2023-05-10T21:51:58;14.20;99.90
45849;DHT22;31567;54.600;9.842;2023-05-10T21:55:37;14.30;99.90
45849;DHT22;31567;54.600;9.842;2023-05-10T21:59:17;14.20;99.90
45849;DHT22;31567;54.600;9.842;2023-05-10T22:02:57;14.20;99.90
45849;DHT22;31567;54.600;9.842;2023-05-10T22:06:36;14.20;99.90
45849;DHT22;31567;54.600;9.842;2023-05-10T22:10:16;14.20;99.90
45849;DHT22;31567;54.600;9.842;2023-05-10T22:13:56;14.30;99.90
45849;DHT22;31567;54.600;9.842;2023-05-10T22:17:37;14.30;99.90
45849;DHT22;31567;54.600;9.842;2023-05-10T22:21:17;14.30;99.90
45849;DHT22;31567;54.600;9.842;2023-05-10T22:24:57;14.30;99.90
45849;DHT22;31567;54.600;9.842;2023-05-10T22:28:36;14.30;99.90
45849;DHT22;31567;54.600;9.842;2023-05-10T22:32:16;14.40;99.90
45849;DHT22;31567;54.600;9.842;2023-05-10T22:35:55;14.40;99.90
45849;DHT22;31567;54.600;9.842;2023-05-10T22:39:35;14.50;99.90
45849;DHT22;31567;54.600;9.842;2023-05-10T22:43:15;14.50;99.90
45849;DHT22;31567;54.600;9.842;2023-05-10T22:46:55;14.50;99.90
45849;DHT22;31567;54.600;9.842;2023-05-10T22:50:34;14.50;99.90
45849;DHT22;31567;54.600;9.842;2023-05-10T22:54:15;14.60;99.90
45849;DHT22;31567;54.600;9.842;2023-05-10T22:57:55;14.60;99.90
45849;DHT22;31567;54.600;9.842;2023-05-10T23:01:34;14.70;99.90
45849;DHT22;31567;54.600;9.842;2023-05-10T23:05:14;14.70;99.90
45849;DHT22;31567;54.600;9.842;2023-05-10T23:08:54;14.70;99.90
45849;DHT22;31567;54.600;9.842;2023-05-10T23:12:34;14.70;99.90
45849;DHT22;31567;54.600;9.842;2023-05-10T23:16:13;14.70;99.90
45849;DHT22;31567;54.600;9.842;2023-05-10T23:19:53;14.70;99.90
45849;DHT22;31567;54.600;9.842;2023-05-10T23:23:32;14.60;99.90
45849;DHT22;31567;54.600;9.842;2023-05-10T23:27:12;14.60;99.90
45849;DHT22;31567;54.600;9.842;2023-05-10T23:30:56;14.60;99.90